Time;durP1;ratioP1;P1;durP2;ratioP2;P2;SDS_P1;SDS_P2;PMS_P1;PMS_P2;Temp;Humidity;BMP_temperature;BMP_pressure;BME280_temperature;BME280_humidity;BME280_pressure;Samples;Min_cycle;Max_cycle;Signal;HPM_P1;HPM_P2
2022/05/10 00:01:46;;;;;;;20.92;13.07;;;;;;;12.55;100.00;100996.19;5051047;28;20020;-61
2022/05/10 00:04:12;;;;;;;12.43;11.10;;;;;;;12.35;100.00;100967.31;5049819;28;20024;-61
2022/05/10 00:06:40;;;;;;;15.82;10.73;;;;;;;12.53;100.00;101004.19;5049075;28;20140;-61
2022/05/10 00:09:07;;;;;;;16.85;10.93;;;;;;;12.44;100.00;100993.22;5030461;28;20027;-61
2022/05/10 00:11:32;;;;;;;14.80;11.00;;;;;;;12.14;100.00;100940.22;5048584;28;20135;-62
2022/05/10 00:13:57;;;;;;;13.70;10.27;;;;;;;12.42;100.00;101005.63;5048323;28;20032;-62
2022/05/10 00:16:23;;;;;;;12.55;9.95;;;;;;;12.42;100.00;101003.00;5048502;28;20031;-61
2022/05/10 00:18:48;;;;;;;11.68;10.10;;;;;;;12.35;100.00;100994.53;5048855;28;20035;-61
2022/05/10 00:21:17;;;;;;;14.20;9.90;;;;;;;12.33;100.00;101003.44;5049894;28;20583;-61
2022/05/10 00:23:43;;;;;;;14.00;9.75;;;;;;;12.30;100.00;100999.19;5033318;28;20024;-61
2022/05/10 00:26:08;;;;;;;10.40;9.13;;;;;;;12.26;100.00;100994.97;5052505;28;20032;-61
2022/05/10 00:28:34;;;;;;;14.70;10.65;;;;;;;12.27;100.00;100994.03;5052369;28;20023;-61
2022/05/10 00:30:59;;;;;;;13.77;10.60;;;;;;;12.20;100.00;100990.00;5053538;28;20082;-61
2022/05/10 00:33:29;;;;;;;10.63;9.10;;;;;;;12.19;100.00;100980.38;5048890;28;20084;-61
2022/05/10 00:35:56;;;;;;;12.02;9.80;;;;;;;12.11;100.00;100974.63;5030269;28;20109;-61
2022/05/10 00:38:26;;;;;;;12.48;8.98;;;;;;;12.12;100.00;100971.06;5050325;28;20060;-61
2022/05/10 00:40:51;;;;;;;12.52;10.55;;;;;;;12.22;100.00;100993.41;5029254;28;20098;-62
2022/05/10 00:43:33;;;;;;;11.35;10.23;;;;;;;11.97;100.00;100951.56;5045382;28;20875;-62
2022/05/10 00:46:11;;;;;;;17.33;10.55;;;;;;;12.18;100.00;100997.97;5036346;28;20024;-61
2022/05/10 00:48:36;;;;;;;10.93;9.77;;;;;;;12.12;100.00;100992.13;5027514;28;20072;-62
2022/05/10 00:51:30;;;;;;;12.90;10.32;;;;;;;11.78;100.00;100946.31;5027913;28;20093;-62
2022/05/10 00:54:18;;;;;;;12.18;9.93;;;;;;;12.00;100.00;100988.28;5006058;28;20277;-62
2022/05/10 00:56:52;;;;;;;11.35;9.73;;;;;;;11.78;100.00;100955.97;5026990;28;20049;-62
2022/05/10 00:59:17;;;;;;;16.65;10.45;;;;;;;11.96;100.00;100981.47;5027924;28;20321;-61
2022/05/10 01:01:45;;;;;;;13.68;10.25;;;;;;;11.86;100.00;100968.78;5027547;28;20847;-61
2022/05/10 01:04:38;;;;;;;11.73;10.00;;;;;;;11.89;100.00;100980.03;5009817;28;20035;-61
2022/05/10 01:07:08;;;;;;;13.07;9.40;;;;;;;11.66;100.00;100946.81;5008875;28;20072;-61
2022/05/10 01:09:43;;;;;;;12.25;9.73;;;;;;;11.82;100.00;100970.72;5009877;28;20082;-62
2022/05/10 01:12:13;;;;;;;14.85;9.73;;;;;;;11.82;100.00;100972.50;5027661;28;20138;-61
2022/05/10 01:14:59;;;;;;;13.20;10.70;;;;;;;11.76;100.00;100969.19;5009429;28;20058;-62
2022/05/10 01:17:25;;;;;;;11.95;10.55;;;;;;;11.83;100.00;100974.22;5027154;28;20032;-61
2022/05/10 01:19:50;;;;;;;13.65;9.60;;;;;;;11.89;100.00;100972.16;5009949;28;20920;-61
2022/05/10 01:22:30;;;;;;;14.25;10.60;;;;;;;11.96;100.00;100980.63;5010403;28;20759;-61
2022/05/10 01:25:10;;;;;;;13.88;10.45;;;;;;;11.88;100.00;100965.16;5011490;28;20032;-62
2022/05/10 01:27:49;;;;;;;12.40;11.20;;;;;;;11.72;100.00;100949.22;5026905;28;20127;-61
2022/05/10 01:30:22;;;;;;;14.68;11.20;;;;;;;11.73;100.00;100974.59;5009454;28;20038;-61
2022/05/10 01:36:04;;;;;;;14.80;11.60;;;;;;;11.57;100.00;100967.44;5028417;28;20079;-61
2022/05/10 01:38:51;;;;;;;14.38;11.40;;;;;;;11.50;100.00;100961.59;5027132;28;20028;-61
2022/05/10 01:41:25;;;;;;;14.82;11.75;;;;;;;11.46;100.00;100960.03;5026739;28;20447;-61
2022/05/10 01:44:18;;;;;;;13.45;11.23;;;;;;;11.47;100.00;100958.25;5008827;28;21015;-61
2022/05/10 01:46:46;;;;;;;13.70;10.63;;;;;;;11.41;100.00;100945.38;5055697;28;20146;-61
2022/05/10 01:49:26;;;;;;;14.70;11.55;;;;;;;11.42;100.00;100947.97;5049648;28;20054;-61
2022/05/10 01:52:00;;;;;;;14.25;12.23;;;;;;;11.37;100.00;100949.06;5051559;28;20830;-61
2022/05/10 01:54:34;;;;;;;16.08;11.30;;;;;;;11.38;100.00;100950.78;5069113;28;20032;-61
2022/05/10 01:56:59;;;;;;;14.35;11.98;;;;;;;11.36;100.00;100947.34;5026474;28;20085;-61
2022/05/10 01:59:25;;;;;;;15.65;12.52;;;;;;;11.30;100.00;100945.84;5026482;28;20934;-61
2022/05/10 02:01:50;;;;;;;19.70;12.05;;;;;;;11.26;100.00;100941.63;5026837;28;20036;-61
2022/05/10 02:04:20;;;;;;;15.05;12.93;;;;;;;11.22;100.00;100938.28;5008804;28;20893;-61
2022/05/10 02:06:47;;;;;;;17.38;11.18;;;;;;;11.20;100.00;100942.78;5008239;28;20035;-61
2022/05/10 02:09:30;;;;;;;15.98;11.93;;;;;;;11.18;100.00;100949.91;5008326;28;20215;-61
2022/05/10 02:11:59;;;;;;;14.27;12.18;;;;;;;11.13;100.00;100946.59;5027079;28;20117;-61
2022/05/10 02:14:28;;;;;;;17.58;13.00;;;;;;;11.05;100.00;100938.16;5024659;28;20947;-61
2022/05/10 02:17:06;;;;;;;22.83;12.93;;;;;;;11.04;100.00;100938.25;5026405;28;20937;-61
2022/05/10 02:20:04;;;;;;;15.93;13.00;;;;;;;10.93;100.00;100927.34;5026172;28;20141;-61
2022/05/10 02:22:53;;;;;;;14.13;12.57;;;;;;;10.95;100.00;100934.22;4995323;28;20064;-61
2022/05/10 02:25:26;;;;;;;11.52;10.45;;;;;;;10.96;100.00;100925.44;5025851;28;20036;-61
2022/05/10 02:27:58;;;;;;;14.48;12.48;;;;;;;10.96;100.00;100933.31;5024928;28;20036;-61
2022/05/10 02:30:27;;;;;;;16.42;12.85;;;;;;;10.93;100.00;100928.19;5025892;28;20988;-61
2022/05/10 02:33:07;;;;;;;16.75;12.82;;;;;;;10.86;100.00;100910.97;5026547;28;20051;-61
2022/05/10 02:35:48;;;;;;;15.95;11.80;;;;;;;10.51;100.00;100851.19;5026713;28;20033;-61
2022/05/10 02:38:18;;;;;;;14.35;12.77;;;;;;;10.92;100.00;100915.97;5026747;28;20313;-62
2022/05/10 02:40:45;;;;;;;12.02;10.93;;;;;;;10.84;100.00;100901.47;5025206;28;20032;-61
2022/05/10 02:43:16;;;;;;;11.90;10.65;;;;;;;10.92;100.00;100905.44;5025981;28;20033;-61
2022/05/10 02:45:42;;;;;;;13.15;11.75;;;;;;;10.94;100.00;100902.75;5025613;28;20042;-61
2022/05/10 02:48:29;;;;;;;17.60;12.05;;;;;;;10.97;100.00;100902.63;5026630;28;20038;-62
2022/05/10 02:50:55;;;;;;;15.20;11.93;;;;;;;10.83;100.00;100879.56;5008042;28;20069;-61
2022/05/10 02:53:20;;;;;;;15.90;12.50;;;;;;;10.86;100.00;100889.09;5026507;28;20035;-61
2022/05/10 02:55:53;;;;;;;14.20;12.65;;;;;;;10.90;100.00;100896.78;5025608;28;20024;-61
2022/05/10 02:58:52;;;;;;;15.63;12.18;;;;;;;10.89;100.00;100895.06;5026026;28;20814;-62
2022/05/10 03:01:38;;;;;;;19.23;12.10;;;;;;;10.79;100.00;100877.97;5025853;28;20409;-61
2022/05/10 03:04:05;;;;;;;11.90;10.73;;;;;;;10.80;100.00;100879.69;5026601;28;20028;-61
2022/05/10 03:06:31;;;;;;;12.88;11.55;;;;;;;10.80;100.00;100874.44;5029858;28;20893;-61
2022/05/10 03:08:57;;;;;;;17.17;12.10;;;;;;;10.52;100.00;100837.13;5029786;28;20069;-61
2022/05/10 03:11:23;;;;;;;13.63;10.20;;;;;;;10.84;100.00;100886.53;5031739;28;20127;-61
2022/05/10 03:13:49;;;;;;;13.50;11.82;;;;;;;10.82;100.00;100887.50;5032521;28;20025;-61
2022/05/10 03:16:18;;;;;;;14.85;12.88;;;;;;;10.82;100.00;100887.50;5012277;28;20886;-61
2022/05/10 03:18:44;;;;;;;14.05;12.57;;;;;;;10.80;100.00;100884.97;5030078;28;20074;-61
2022/05/10 03:21:09;;;;;;;13.48;11.65;;;;;;;10.79;100.00;100877.97;5029484;28;20233;-61
2022/05/10 03:23:35;;;;;;;14.75;12.23;;;;;;;10.78;100.00;100877.13;5028715;28;20907;-61
2022/05/10 03:26:01;;;;;;;14.95;11.23;;;;;;;10.73;100.00;100867.75;5030430;28;20028;-61
2022/05/10 03:28:27;;;;;;;15.23;11.82;;;;;;;10.74;100.00;100874.72;5028479;28;20187;-61
2022/05/10 03:30:53;;;;;;;12.18;10.95;;;;;;;10.80;100.00;100878.84;5029226;28;20028;-61
2022/05/10 03:33:18;;;;;;;13.35;11.98;;;;;;;10.79;100.00;100877.97;5029166;28;20941;-61
2022/05/10 03:35:43;;;;;;;12.77;11.38;;;;;;;10.66;100.00;100853.16;5029660;28;20785;-61
2022/05/10 03:38:09;;;;;;;12.55;10.60;;;;;;;10.74;100.00;100864.19;5028723;28;20032;-61
2022/05/10 03:40:34;;;;;;;12.68;11.10;;;;;;;10.56;100.00;100838.69;5027573;28;20060;-61
2022/05/10 03:43:01;;;;;;;16.98;12.80;;;;;;;10.83;100.00;100870.81;5029384;28;20036;-61
2022/05/10 03:45:26;;;;;;;14.57;13.05;;;;;;;10.75;100.00;100858.00;5028431;28;20390;-62
2022/05/10 03:47:54;;;;;;;18.02;13.60;;;;;;;10.84;100.00;100870.78;5030034;28;20036;-61
2022/05/10 03:50:23;;;;;;;15.23;13.60;;;;;;;10.83;100.00;100869.06;5029571;28;20126;-61
2022/05/10 03:52:49;;;;;;;17.10;13.40;;;;;;;10.82;100.00;100861.22;5027717;28;20028;-62
2022/05/10 03:55:17;;;;;;;16.60;13.25;;;;;;;10.84;100.00;100865.50;5029388;28;20036;-62
2022/05/10 03:57:44;;;;;;;14.13;12.60;;;;;;;10.82;100.00;100862.06;5027261;28;20052;-61
2022/05/10 04:00:14;;;;;;;14.50;12.88;;;;;;;10.85;100.00;100861.94;5027596;28;20028;-61
2022/05/10 04:02:40;;;;;;;17.23;12.85;;;;;;;10.86;100.00;100863.66;5030788;28;20105;-62
2022/05/10 04:05:06;;;;;;;15.18;13.55;;;;;;;10.83;100.00;100849.78;5031807;28;20024;-62
2022/05/10 04:07:31;;;;;;;18.27;13.90;;;;;;;10.86;100.00;100844.41;5052273;28;20481;-61
2022/05/10 04:09:56;;;;;;;13.75;12.30;;;;;;;10.85;100.00;100842.72;5048787;28;20059;-61
2022/05/10 04:12:22;;;;;;;15.88;13.02;;;;;;;10.96;100.00;100851.81;5051587;28;20024;-61
2022/05/10 04:14:47;;;;;;;15.07;13.48;;;;;;;10.98;100.00;100846.50;5049830;28;20025;-61
2022/05/10 04:17:12;;;;;;;13.73;12.20;;;;;;;11.02;100.00;100854.16;5049987;28;20893;-61
2022/05/10 04:19:38;;;;;;;17.58;14.75;;;;;;;10.91;100.00;100829.28;5050011;28;20879;-61
2022/05/10 04:22:04;;;;;;;17.80;14.95;;;;;;;11.02;100.00;100843.66;5048621;28;20024;-61
2022/05/10 04:24:29;;;;;;;15.25;13.65;;;;;;;10.97;100.00;100823.75;5049691;28;20028;-61
2022/05/10 04:26:55;;;;;;;15.38;13.65;;;;;;;10.94;100.00;100814.22;5030931;28;20967;-61
2022/05/10 04:29:20;;;;;;;15.38;13.77;;;;;;;11.21;100.00;100855.06;5047045;28;20039;-61
2022/05/10 04:31:45;;;;;;;17.40;13.57;;;;;;;11.16;100.00;100848.28;5029541;28;20027;-62
2022/05/10 04:34:11;;;;;;;16.38;13.93;;;;;;;11.26;100.00;100854.84;5031880;28;20739;-62
2022/05/10 04:36:36;;;;;;;14.77;13.00;;;;;;;11.24;100.00;100852.28;5047999;28;20841;-62
2022/05/10 04:39:03;;;;;;;21.58;13.27;;;;;;;11.33;100.00;100847.50;5047437;28;20872;-61
2022/05/10 04:41:32;;;;;;;15.18;13.68;;;;;;;11.33;100.00;100832.59;5048920;28;20032;-61
2022/05/10 04:44:00;;;;;;;16.40;14.27;;;;;;;11.48;100.00;100855.56;5048124;28;20093;-61
2022/05/10 04:46:27;;;;;;;15.48;13.70;;;;;;;11.40;100.00;100826.13;5048105;28;20135;-61
2022/05/10 04:48:53;;;;;;;15.40;13.85;;;;;;;11.63;100.00;100851.34;5048043;28;20977;-62
2022/05/10 04:51:19;;;;;;;14.77;13.23;;;;;;;11.75;100.00;100861.34;5047633;28;20114;-62
2022/05/10 04:53:44;;;;;;;16.23;14.23;;;;;;;11.79;100.00;100847.13;5047715;28;20982;-61
2022/05/10 04:56:10;;;;;;;14.88;12.48;;;;;;;11.94;100.00;100856.03;5046797;28;20035;-62
2022/05/10 04:58:35;;;;;;;15.18;12.98;;;;;;;11.85;100.00;100823.13;5046632;28;20552;-61
2022/05/10 05:01:04;;;;;;;13.52;12.23;;;;;;;12.17;100.00;100855.75;5028862;28;20482;-62
2022/05/10 05:03:30;;;;;;;12.65;10.95;;;;;;;12.33;100.00;100853.25;5049209;28;20162;-62
2022/05/10 05:05:56;;;;;;;15.20;12.05;;;;;;;12.43;100.00;100850.06;5046535;28;20032;-62
2022/05/10 05:08:21;;;;;;;12.98;11.68;;;;;;;12.58;100.00;100853.69;5046796;28;20032;-61
2022/05/10 05:10:46;;;;;;;14.30;10.90;;;;;;;12.69;100.00;100846.09;5046288;28;20039;-61
2022/05/10 05:13:14;;;;;;;14.27;12.20;;;;;;;12.84;100.00;100849.72;5046183;28;20044;-61
2022/05/10 05:15:39;;;;;;;11.52;10.32;;;;;;;12.92;100.00;100843.09;5046565;28;20507;-62
2022/05/10 05:18:07;;;;;;;12.90;10.68;;;;;;;13.13;100.00;100863.13;5046647;28;20020;-61
2022/05/10 05:20:34;;;;;;;9.75;8.70;;;;;;;13.29;100.00;100858.72;5047321;28;20046;-61
2022/05/10 05:23:01;;;;;;;14.57;8.93;;;;;;;13.43;100.00;100854.47;5047285;28;20943;-61
2022/05/10 05:25:26;;;;;;;12.80;8.20;;;;;;;13.50;100.00;100850.56;5046233;28;20042;-61
2022/05/10 05:27:52;;;;;;;10.70;7.72;;;;;;;13.66;100.00;100856.69;5046270;28;20753;-62
2022/05/10 05:30:17;;;;;;;9.13;7.55;;;;;;;13.80;100.00;100864.69;5046887;28;20897;-62
2022/05/10 05:32:42;;;;;;;13.98;8.32;;;;;;;13.91;100.00;100858.81;5046278;28;20032;-61
2022/05/10 05:35:09;;;;;;;9.70;7.20;;;;;;;14.03;100.00;100856.31;5047432;28;20059;-62
2022/05/10 05:37:37;;;;;;;11.52;7.85;;;;;;;14.19;100.00;100857.13;5045299;28;20032;-62
2022/05/10 05:40:08;;;;;;;9.25;7.55;;;;;;;14.42;100.00;100862.94;5028513;28;20940;-62
2022/05/10 05:42:34;;;;;;;10.90;7.80;;;;;;;14.58;100.00;100859.28;5046458;28;20096;-62
2022/05/10 05:45:00;;;;;;;8.20;6.57;;;;;;;14.68;100.00;100849.00;5047028;28;21062;-61
2022/05/10 05:47:25;;;;;;;16.35;7.80;;;;;;;14.90;100.00;100869.75;5046963;28;20028;-62
2022/05/10 05:49:51;;;;;;;11.07;7.15;;;;;;;14.95;100.00;100847.34;5047660;28;20024;-62
2022/05/10 05:52:20;;;;;;;17.63;7.32;;;;;;;14.95;100.00;100828.81;5046389;28;20064;-61
2022/05/10 05:54:45;;;;;;;12.38;6.95;;;;;;;15.30;100.00;100864.56;5047636;28;20783;-61
2022/05/10 05:57:11;;;;;;;12.35;7.68;;;;;;;15.41;100.00;100847.16;5028508;28;20152;-61
2022/05/10 05:59:36;;;;;;;11.13;7.85;;;;;;;15.55;100.00;100849.81;5047046;28;20029;-61
2022/05/10 06:02:02;;;;;;;10.93;6.82;;;;;;;15.75;100.00;100854.69;5047295;28;20028;-61
2022/05/10 06:04:27;;;;;;;8.15;6.38;;;;;;;15.84;100.00;100843.50;5050638;28;20040;-62
2022/05/10 06:06:53;;;;;;;8.02;5.53;;;;;;;15.93;100.00;100832.28;5051290;28;20057;-61
2022/05/10 06:09:22;;;;;;;17.58;6.97;;;;;;;16.13;100.00;100841.59;5051672;28;20035;-61
2022/05/10 06:11:50;;;;;;;12.77;7.22;;;;;;;16.31;100.00;100865.09;5054312;28;20024;-61
2022/05/10 06:14:16;;;;;;;10.70;6.25;;;;;;;16.23;100.00;100829.41;5058620;28;20024;-61
2022/05/10 06:16:42;;;;;;;8.32;6.35;;;;;;;16.06;100.00;100796.06;5074321;28;20141;-61
2022/05/10 06:19:09;;;;;;;10.10;6.95;;;;;;;16.43;100.00;100858.09;5060390;28;20335;-61
2022/05/10 06:21:34;;;;;;;9.88;6.05;;;;;;;16.42;100.00;100839.66;5060769;28;20028;-61
2022/05/10 06:24:00;;;;;;;13.65;7.10;;;;;;;16.53;100.00;100853.03;5063764;28;20870;-61
2022/05/10 06:26:25;;;;;;;7.70;5.25;;;;;;;16.31;100.00;100801.44;5062818;28;20043;-61
2022/05/10 06:28:51;;;;;;;7.53;5.25;;;;;;;16.72;100.00;100851.75;5071771;28;20719;-61
2022/05/10 06:31:16;;;;;;;8.60;6.40;;;;;;;16.65;100.00;100821.25;5056309;28;20033;-62
2022/05/10 06:33:41;;;;;;;21.08;6.35;;;;;;;16.86;100.00;100848.13;5060615;28;20652;-61
2022/05/10 06:36:07;;;;;;;8.65;6.88;;;;;;;16.92;100.00;100846.84;5091034;28;20036;-61
2022/05/10 06:38:34;;;;;;;11.70;6.65;;;;;;;16.96;100.00;100841.22;5088014;28;20024;-61
2022/05/10 06:41:02;;;;;;;12.40;5.65;;;;;;;17.02;100.00;100834.63;5068686;28;20040;-62
2022/05/10 06:43:30;;;;;;;12.95;6.47;;;;;;;16.90;100.00;100799.16;5061923;28;20028;-62
2022/05/10 06:45:59;;;;;;;8.90;5.43;;;;;;;17.15;100.00;100824.84;5075631;28;20032;-62
2022/05/10 06:48:25;;;;;;;8.65;5.65;;;;;;;17.22;100.00;100800.41;5068976;28;20872;-61
2022/05/10 06:50:50;;;;;;;11.38;5.60;;;;;;;17.61;100.00;100833.06;5048179;28;20123;-61
2022/05/10 06:53:16;;;;;;;8.35;6.20;;;;;;;17.76;100.00;100810.69;5068606;28;20026;-61
2022/05/10 06:55:41;;;;;;;9.30;6.03;;;;;;;18.01;100.00;100815.91;5043945;28;20685;-64
2022/05/10 06:58:07;;;;;;;7.03;4.95;;;;;;;18.10;100.00;100799.25;5031840;28;20095;-62
2022/05/10 07:00:35;;;;;;;9.52;5.40;;;;;;;18.39;100.00;100816.53;5048336;28;20032;-62
2022/05/10 07:03:14;;;;;;;8.07;5.00;;;;;;;18.61;100.00;100812.25;5046644;28;20025;-62
2022/05/10 07:05:41;;;;;;;7.93;4.75;;;;;;;18.73;100.00;100808.66;5047419;28;20823;-62
2022/05/10 07:08:07;;;;;;;8.38;4.60;;;;;;;18.85;100.00;100802.38;5044004;28;20029;-62
2022/05/10 07:10:32;;;;;;;5.63;4.32;;;;;;;19.01;100.00;100802.88;5048840;28;20066;-62
2022/05/10 07:12:58;;;;;;;8.52;5.13;;;;;;;19.01;100.00;100781.56;5061886;28;20031;-62
2022/05/10 07:15:24;;;;;;;6.13;4.55;;;;;;;19.23;100.00;100802.84;5061305;28;20027;-61
2022/05/10 07:17:50;;;;;;;7.38;3.70;;;;;;;19.16;100.00;100790.97;5058929;28;20081;-62
2022/05/10 07:20:17;;;;;;;7.72;4.47;;;;;;;19.34;100.00;100805.50;5058587;28;20020;-62
2022/05/10 07:22:43;;;;;;;6.00;4.63;;;;;;;19.24;100.00;100777.91;5050407;28;20033;-61
2022/05/10 07:25:11;;;;;;;8.13;4.40;;;;;;;19.41;100.00;100794.38;5036322;28;20083;-62
2022/05/10 07:27:37;;;;;;;7.13;4.70;;;;;;;19.50;100.00;100799.81;5015744;28;20037;-62
2022/05/10 07:30:02;;;;;;;10.70;5.00;;;;;;;19.63;100.00;100797.03;5030704;28;20930;-62
2022/05/10 07:32:29;;;;;;;7.28;4.82;;;;;;;19.68;100.00;100800.16;5029640;28;20091;-62
2022/05/10 07:34:54;;;;;;;9.27;4.78;;;;;;;19.67;100.00;100806.47;5029530;28;20028;-62
2022/05/10 07:37:20;;;;;;;14.02;4.35;;;;;;;19.64;100.00;100790.72;5026424;28;20040;-62
2022/05/10 07:39:45;;;;;;;5.05;3.60;;;;;;;19.66;100.00;100794.97;5025334;28;20132;-62
2022/05/10 07:42:10;;;;;;;9.18;4.25;;;;;;;19.75;100.00;100793.34;5026300;28;20873;-62
2022/05/10 07:44:36;;;;;;;6.13;3.95;;;;;;;19.82;100.00;100805.22;5026331;28;20024;-62
2022/05/10 07:47:01;;;;;;;5.63;3.97;;;;;;;19.89;100.00;100799.25;5026811;28;20024;-61
2022/05/10 07:49:27;;;;;;;6.93;4.47;;;;;;;19.96;100.00;100785.41;5026713;28;20089;-62
2022/05/10 07:51:53;;;;;;;9.75;4.65;;;;;;;20.12;100.00;100800.00;5031106;28;20938;-62
2022/05/10 07:54:19;;;;;;;7.03;4.20;;;;;;;20.07;100.00;100772.88;5012765;28;20210;-62
2022/05/10 07:56:44;;;;;;;7.30;3.78;;;;;;;20.34;100.00;100797.28;5031745;28;20032;-62
2022/05/10 07:59:10;;;;;;;10.13;3.65;;;;;;;20.39;100.00;100789.72;5030682;28;20060;-62
2022/05/10 08:01:36;;;;;;;10.13;4.10;;;;;;;20.55;100.00;100789.25;5028138;28;20027;-62
2022/05/10 08:04:02;;;;;;;6.18;3.88;;;;;;;20.67;100.00;100792.69;5028715;28;20102;-62
2022/05/10 08:06:27;;;;;;;7.15;3.40;;;;;;;20.78;100.00;100787.28;5029045;28;20029;-62
2022/05/10 08:08:53;;;;;;;8.13;3.78;;;;;;;20.89;100.00;100795.19;5027552;28;20059;-62
2022/05/10 08:11:18;;;;;;;8.35;3.53;;;;;;;20.90;100.00;100791.56;5028151;28;20199;-62
2022/05/10 08:13:44;;;;;;;7.68;3.40;;;;;;;20.54;100.00;100723.50;5028115;28;21014;-62
2022/05/10 08:16:10;;;;;;;7.28;3.38;;;;;;;21.01;100.00;100785.28;5027565;28;20953;-62
2022/05/10 08:18:37;;;;;;;6.22;4.07;;;;;;;21.20;100.00;100790.72;5027715;28;20024;-62
2022/05/10 08:21:03;;;;;;;9.57;3.67;;;;;;;21.32;100.00;100790.50;5011049;28;20988;-62
2022/05/10 08:23:32;;;;;;;8.10;3.78;;;;;;;21.29;100.00;100785.41;5010437;28;20044;-62
2022/05/10 08:25:59;;;;;;;10.20;4.15;;;;;;;21.36;100.00;100789.22;5029780;28;20037;-62
2022/05/10 08:28:27;;;;;;;5.30;3.45;;;;;;;21.03;100.00;100722.69;5027372;28;20095;-62
2022/05/10 08:30:53;;;;;;;5.47;3.78;;;;;;;21.48;100.00;100784.63;5028957;28;20048;-62
2022/05/10 08:33:19;;;;;;;5.18;3.45;;;;;;;21.58;100.00;100790.84;5027778;28;20025;-62
2022/05/10 08:35:44;;;;;;;6.05;4.15;;;;;;;21.52;100.00;100755.78;5028049;28;20028;-61
2022/05/10 08:38:10;;;;;;;7.95;3.42;;;;;;;21.69;100.00;100781.88;5027826;28;20021;-62
2022/05/10 08:40:47;;;;;;;7.10;3.55;;;;;;;21.62;100.00;100775.38;5028128;28;20029;-62
2022/05/10 08:43:32;;;;;;;6.47;3.88;;;;;;;21.56;100.00;100760.72;5027964;28;20852;-62
2022/05/10 08:45:58;;;;;;;9.95;3.65;;;;;;;21.63;100.00;100767.19;5027711;28;20074;-62
2022/05/10 08:48:26;;;;;;;8.88;4.35;;;;;;;21.77;100.00;100774.81;5009683;28;20021;-62
2022/05/10 08:50:51;;;;;;;7.82;3.85;;;;;;;21.83;100.00;100760.06;5009270;28;20932;-62
2022/05/10 08:53:17;;;;;;;16.73;4.38;;;;;;;22.02;100.00;100776.16;5011364;28;20057;-61
2022/05/10 08:55:51;;;;;;;12.80;4.32;;;;;;;21.99;93.50;100773.75;5028665;28;20968;-61
2022/05/10 08:58:35;;;;;;;6.80;3.80;;;;;;;22.09;100.00;100774.59;5010414;28;20028;-62
2022/05/10 09:01:02;;;;;;;10.63;5.33;;;;;;;22.21;95.50;100772.59;5019948;28;20861;-62
2022/05/10 09:03:34;;;;;;;13.00;4.65;;;;;;;22.32;100.00;100762.59;5010074;28;20283;-61
2022/05/10 09:06:26;;;;;;;13.35;4.88;;;;;;;22.16;89.23;100753.44;5028329;28;20024;-61
2022/05/10 09:09:16;;;;;;;12.35;4.38;;;;;;;22.07;88.25;100765.84;5017373;28;20070;-61
2022/05/10 09:12:09;;;;;;;5.53;3.53;;;;;;;22.04;87.71;100765.28;5013035;28;20027;-61
2022/05/10 09:14:41;;;;;;;6.88;3.83;;;;;;;22.01;91.08;100754.84;5030605;28;20943;-62
2022/05/10 09:17:08;;;;;;;9.02;3.70;;;;;;;21.92;93.45;100739.66;5024810;28;20899;-62
2022/05/10 09:19:41;;;;;;;7.15;3.92;;;;;;;21.86;89.09;100749.06;5021159;28;20138;-62
2022/05/10 09:22:22;;;;;;;9.75;3.70;;;;;;;21.87;92.63;100748.06;5039668;28;20024;-62
2022/05/10 09:24:53;;;;;;;6.53;3.08;;;;;;;21.86;100.00;100749.91;5036485;28;20117;-62
2022/05/10 09:27:20;;;;;;;6.18;3.83;;;;;;;21.78;89.38;100735.53;5037550;28;20030;-61
2022/05/10 09:29:50;;;;;;;5.05;3.20;;;;;;;21.93;94.10;100758.25;5043441;28;20028;-62
2022/05/10 09:35:13;;;;;;;7.15;3.50;;;;;;;22.26;85.17;100739.06;5041468;28;20063;-62
2022/05/10 09:37:56;;;;;;;9.68;3.78;;;;;;;22.41;85.08;100734.94;5040785;28;20039;-61
2022/05/10 09:40:47;;;;;;;7.57;3.45;;;;;;;22.58;81.81;100748.56;5046377;28;20046;-61
2022/05/10 09:43:27;;;;;;;4.82;3.15;;;;;;;22.63;83.02;100724.88;5047336;28;20135;-62
2022/05/10 09:46:10;;;;;;;7.85;3.53;;;;;;;22.79;84.55;100725.13;5046496;28;20493;-62
2022/05/10 09:48:37;;;;;;;9.05;4.22;;;;;;;22.98;81.62;100714.34;5046417;28;20024;-62
2022/05/10 09:51:33;;;;;;;7.28;3.17;;;;;;;23.37;77.61;100731.91;5047198;28;20028;-61
2022/05/10 09:53:58;;;;;;;12.85;4.60;;;;;;;23.49;79.93;100735.22;5044854;28;20024;-62
2022/05/10 09:56:24;;;;;;;12.48;4.55;;;;;;;23.56;78.99;100730.09;5020621;28;20036;-62
2022/05/10 09:58:54;;;;;;;10.63;4.10;;;;;;;23.63;75.49;100737.38;5028170;28;20871;-61
2022/05/10 10:01:45;;;;;;;8.65;3.60;;;;;;;23.66;80.38;100720.13;5008055;28;20821;-62
2022/05/10 10:04:13;;;;;;;12.90;4.10;;;;;;;23.70;74.01;100729.56;5034130;28;20131;-61
2022/05/10 10:06:39;;;;;;;6.65;3.25;;;;;;;23.63;78.58;100715.91;5046536;28;20094;-61
2022/05/10 10:09:04;;;;;;;7.63;3.38;;;;;;;23.64;73.38;100716.75;5028767;28;20148;-62
2022/05/10 10:11:38;;;;;;;8.73;3.88;;;;;;;23.58;73.29;100723.59;5046573;28;20135;-62
2022/05/10 10:14:09;;;;;;;15.43;3.90;;;;;;;23.60;71.69;100726.13;5044866;28;20031;-62
2022/05/10 10:16:34;;;;;;;7.47;3.70;;;;;;;23.67;73.21;100716.47;5046066;28;20096;-61
2022/05/10 10:19:05;;;;;;;6.45;3.85;;;;;;;23.70;73.75;100706.25;5045679;28;20032;-62
2022/05/10 10:21:48;;;;;;;7.57;3.70;;;;;;;23.72;71.61;100719.53;5044905;28;20128;-62
2022/05/10 10:24:19;;;;;;;10.77;4.43;;;;;;;23.62;71.44;100716.09;5026226;28;20057;-61
2022/05/10 10:26:47;;;;;;;16.65;4.10;;;;;;;23.65;72.04;100713.09;5008090;28;20035;-61
2022/05/10 10:29:20;;;;;;;9.27;3.60;;;;;;;23.96;71.88;100714.41;5025638;28;20025;-62
2022/05/10 10:32:01;;;;;;;7.70;4.22;;;;;;;24.28;70.69;100706.59;5025601;28;20034;-62
2022/05/10 10:34:39;;;;;;;5.18;2.95;;;;;;;24.63;70.91;100720.94;5008832;28;20036;-61
2022/05/10 10:37:10;;;;;;;9.60;4.03;;;;;;;24.62;70.08;100681.63;5025727;28;20044;-62
2022/05/10 10:39:59;;;;;;;8.82;3.53;;;;;;;24.81;72.95;100708.25;5025345;28;20040;-61
2022/05/10 10:42:49;;;;;;;11.93;4.15;;;;;;;24.78;68.96;100706.72;5007690;28;20143;-61
2022/05/10 10:45:15;;;;;;;16.35;3.42;;;;;;;24.63;68.11;100702.13;5008104;28;20037;-61
2022/05/10 10:48:01;;;;;;;6.75;3.15;;;;;;;24.56;67.43;100709.13;5007487;28;20039;-61
2022/05/10 10:50:30;;;;;;;7.50;3.40;;;;;;;24.59;65.78;100698.06;5008552;28;20041;-62
2022/05/10 10:52:57;;;;;;;7.28;3.17;;;;;;;24.73;70.42;100695.63;5008231;28;20107;-61
2022/05/10 10:55:30;;;;;;;6.50;2.97;;;;;;;25.27;68.53;100688.13;5026427;28;20028;-62
2022/05/10 10:58:21;;;;;;;9.75;3.50;;;;;;;25.69;67.12;100688.88;5026685;28;20040;-61
2022/05/10 11:00:53;;;;;;;7.75;3.33;;;;;;;25.66;64.26;100688.38;5001293;28;20033;-62
2022/05/10 11:03:33;;;;;;;10.57;4.75;;;;;;;25.32;63.47;100692.00;5025148;28;20029;-62
2022/05/10 11:06:14;;;;;;;15.23;3.72;;;;;;;25.19;65.13;100688.94;5035679;28;20037;-62
2022/05/10 11:09:07;;;;;;;13.82;4.75;;;;;;;25.31;63.94;100690.31;5030688;28;20079;-61
2022/05/10 11:12:06;;;;;;;8.68;3.65;;;;;;;25.34;62.29;100684.63;5028821;28;20036;-61
2022/05/10 11:14:44;;;;;;;21.58;3.80;;;;;;;25.57;63.43;100673.25;5044741;28;20094;-61
2022/05/10 11:18:04;;;;;;;10.73;3.80;;;;;;;25.86;61.88;100669.03;5027556;28;20062;-61
2022/05/10 11:20:44;;;;;;;16.13;4.10;;;;;;;26.39;61.05;100671.22;4962911;28;20033;-62
2022/05/10 11:23:16;;;;;;;19.35;4.93;;;;;;;26.37;61.36;100659.75;5044705;28;20929;-62
2022/05/10 11:26:18;;;;;;;15.40;4.88;;;;;;;26.46;64.45;100665.97;5049517;28;20028;-61
2022/05/10 11:29:03;;;;;;;15.27;3.88;;;;;;;26.98;60.65;100660.91;5048743;28;20052;-61
2022/05/10 11:31:46;;;;;;;7.70;3.55;;;;;;;27.20;60.18;100654.72;5051263;28;20049;-61